sensor_id;sensor_type;location;lat;lon;timestamp;temperature;humidity
6822;DHT22;3449;48.728;8.968;2023-04-06T00:00:33;0.90;99.90
6822;DHT22;3449;48.728;8.968;2023-04-06T00:03:00;0.80;99.90
6822;DHT22;3449;48.728;8.968;2023-04-06T00:05:27;0.80;99.90
6822;DHT22;3449;48.728;8.968;2023-04-06T00:07:56;0.80;99.90
6822;DHT22;3449;48.728;8.968;2023-04-06T00:10:23;0.70;99.90
6822;DHT22;3449;48.728;8.968;2023-04-06T00:12:52;0.70;99.90
6822;DHT22;3449;48.728;8.968;2023-04-06T00:15:19;0.60;99.90
6822;DHT22;3449;48.728;8.968;2023-04-06T00:17:46;0.60;99.90
6822;DHT22;3449;48.728;8.968;2023-04-06T00:20:13;0.50;99.90
6822;DHT22;3449;48.728;8.968;2023-04-06T00:22:40;0.50;99.90
6822;DHT22;3449;48.728;8.968;2023-04-06T00:25:08;0.50;99.90
6822;DHT22;3449;48.728;8.968;2023-04-06T00:27:35;0.50;99.90
6822;DHT22;3449;48.728;8.968;2023-04-06T00:30:04;0.50;99.90
6822;DHT22;3449;48.728;8.968;2023-04-06T00:32:32;0.40;99.90
6822;DHT22;3449;48.728;8.968;2023-04-06T00:34:59;0.40;99.90
6822;DHT22;3449;48.728;8.968;2023-04-06T00:37:26;0.40;99.90
6822;DHT22;3449;48.728;8.968;2023-04-06T00:39:53;0.40;99.90
6822;DHT22;3449;48.728;8.968;2023-04-06T00:42:22;0.40;99.90
6822;DHT22;3449;48.728;8.968;2023-04-06T00:44:53;0.30;99.90
6822;DHT22;3449;48.728;8.968;2023-04-06T00:47:22;0.30;99.90
6822;DHT22;3449;48.728;8.968;2023-04-06T00:49:51;0.30;99.90
6822;DHT22;3449;48.728;8.968;2023-04-06T00:52:18;0.20;99.90
6822;DHT22;3449;48.728;8.968;2023-04-06T00:54:45;0.20;99.90
6822;DHT22;3449;48.728;8.968;2023-04-06T00:57:13;0.10;99.90
6822;DHT22;3449;48.728;8.968;2023-04-06T00:59:40;0.10;99.90
6822;DHT22;3449;48.728;8.968;2023-04-06T01:02:08;0.00;99.90
6822;DHT22;3449;48.728;8.968;2023-04-06T01:04:36;0.00;99.90
6822;DHT22;3449;48.728;8.968;2023-04-06T01:07:03;-0.10;99.90
6822;DHT22;3449;48.728;8.968;2023-04-06T01:09:30;-0.10;99.90
6822;DHT22;3449;48.728;8.968;2023-04-06T01:11:58;-0.10;99.90
6822;DHT22;3449;48.728;8.968;2023-04-06T01:14:26;-0.10;99.90
6822;DHT22;3449;48.728;8.968;2023-04-06T01:16:53;-0.20;99.90
6822;DHT22;3449;48.728;8.968;2023-04-06T01:19:22;-0.20;99.90
6822;DHT22;3449;48.728;8.968;2023-04-06T01:21:50;-0.20;99.90
6822;DHT22;3449;48.728;8.968;2023-04-06T01:24:20;-0.20;99.90
6822;DHT22;3449;48.728;8.968;2023-04-06T01:26:47;-0.30;99.90
6822;DHT22;3449;48.728;8.968;2023-04-06T01:29:14;-0.30;99.90
6822;DHT22;3449;48.728;8.968;2023-04-06T01:31:41;-0.30;99.90
6822;DHT22;3449;48.728;8.968;2023-04-06T01:34:08;-0.30;99.90
6822;DHT22;3449;48.728;8.968;2023-04-06T01:36:35;-0.40;99.90
6822;DHT22;3449;48.728;8.968;2023-04-06T01:39:02;-0.40;99.90
6822;DHT22;3449;48.728;8.968;2023-04-06T01:41:30;-0.40;99.90
6822;DHT22;3449;48.728;8.968;2023-04-06T01:43:57;-0.40;99.90
6822;DHT22;3449;48.728;8.968;2023-04-06T01:46:24;-0.50;99.90
6822;DHT22;3449;48.728;8.968;2023-04-06T01:48:51;-0.50;99.90
6822;DHT22;3449;48.728;8.968;2023-04-06T01:51:18;-0.50;99.90
6822;DHT22;3449;48.728;8.968;2023-04-06T01:53:45;-0.50;99.90
6822;DHT22;3449;48.728;8.968;2023-04-06T01:56:13;-0.50;99.90
6822;DHT22;3449;48.728;8.968;2023-04-06T01:58:42;-0.50;99.90
6822;DHT22;3449;48.728;8.968;2023-04-06T02:01:09;-0.50;99.90
6822;DHT22;3449;48.728;8.968;2023-04-06T02:03:36;-0.50;99.90
6822;DHT22;3449;48.728;8.968;2023-04-06T02:06:03;-0.50;99.90
6822;DHT22;3449;48.728;8.968;2023-04-06T02:08:30;-0.60;99.90
6822;DHT22;3449;48.728;8.968;2023-04-06T02:10:57;-0.50;99.90
6822;DHT22;3449;48.728;8.968;2023-04-06T02:13:24;-0.50;99.90
6822;DHT22;3449;48.728;8.968;2023-04-06T02:15:52;-0.60;99.90
6822;DHT22;3449;48.728;8.968;2023-04-06T02:18:20;-0.60;99.90
6822;DHT22;3449;48.728;8.968;2023-04-06T02:20:47;-0.60;99.90
6822;DHT22;3449;48.728;8.968;2023-04-06T02:23:13;-0.60;99.90
6822;DHT22;3449;48.728;8.968;2023-04-06T02:25:40;-0.60;99.90
6822;DHT22;3449;48.728;8.968;2023-04-06T02:28:07;-0.60;99.90
6822;DHT22;3449;48.728;8.968;2023-04-06T02:30:34;-0.60;99.90
6822;DHT22;3449;48.728;8.968;2023-04-06T02:33:03;-0.60;99.90
6822;DHT22;3449;48.728;8.968;2023-04-06T02:35:30;-0.70;99.90
6822;DHT22;3449;48.728;8.968;2023-04-06T02:37:57;-0.70;99.90
6822;DHT22;3449;48.728;8.968;2023-04-06T02:40:24;-0.70;99.90
6822;DHT22;3449;48.728;8.968;2023-04-06T02:42:51;-0.70;99.90
6822;DHT22;3449;48.728;8.968;2023-04-06T02:45:18;-0.70;99.90
6822;DHT22;3449;48.728;8.968;2023-04-06T02:47:45;-0.70;99.90
6822;DHT22;3449;48.728;8.968;2023-04-06T02:50:14;-0.80;99.90
6822;DHT22;3449;48.728;8.968;2023-04-06T02:52:41;-0.80;99.90
6822;DHT22;3449;48.728;8.968;2023-04-06T02:55:08;-0.80;99.90
6822;DHT22;3449;48.728;8.968;2023-04-06T02:57:35;-0.80;99.90
6822;DHT22;3449;48.728;8.968;2023-04-06T03:00:03;-0.80;99.90
6822;DHT22;3449;48.728;8.968;2023-04-06T03:02:30;-0.80;99.90
6822;DHT22;3449;48.728;8.968;2023-04-06T03:04:57;-0.90;99.90
6822;DHT22;3449;48.728;8.968;2023-04-06T03:07:25;-0.90;99.90
6822;DHT22;3449;48.728;8.968;2023-04-06T03:09:52;-0.90;99.90
6822;DHT22;3449;48.728;8.968;2023-04-06T03:12:20;-1.00;99.90
6822;DHT22;3449;48.728;8.968;2023-04-06T03:14:47;-1.00;99.90
6822;DHT22;3449;48.728;8.968;2023-04-06T03:17:14;-1.00;99.90
6822;DHT22;3449;48.728;8.968;2023-04-06T03:19:41;-1.00;99.90
6822;DHT22;3449;48.728;8.968;2023-04-06T03:22:08;-1.00;99.90
6822;DHT22;3449;48.728;8.968;2023-04-06T03:24:36;-1.00;99.90
6822;DHT22;3449;48.728;8.968;2023-04-06T03:27:03;-1.00;99.90
6822;DHT22;3449;48.728;8.968;2023-04-06T03:29:31;-1.00;99.90
6822;DHT22;3449;48.728;8.968;2023-04-06T03:31:58;-1.00;99.90
6822;DHT22;3449;48.728;8.968;2023-04-06T03:34:25;-1.00;99.90
6822;DHT22;3449;48.728;8.968;2023-04-06T03:36:52;-1.10;99.90
6822;DHT22;3449;48.728;8.968;2023-04-06T03:39:19;-1.10;99.90
6822;DHT22;3449;48.728;8.968;2023-04-06T03:41:48;-1.10;99.90
6822;DHT22;3449;48.728;8.968;2023-04-06T03:44:15;-1.20;99.90
6822;DHT22;3449;48.728;8.968;2023-04-06T03:46:42;-1.10;99.90
6822;DHT22;3449;48.728;8.968;2023-04-06T03:49:09;-1.10;99.90
6822;DHT22;3449;48.728;8.968;2023-04-06T03:51:36;-1.10;99.90
6822;DHT22;3449;48.728;8.968;2023-04-06T03:54:03;-1.10;99.90
6822;DHT22;3449;48.728;8.968;2023-04-06T03:56:30;-1.20;99.90
6822;DHT22;3449;48.728;8.968;2023-04-06T03:58:59;-1.20;99.90
6822;DHT22;3449;48.728;8.968;2023-04-06T04:01:27;-1.20;99.90
6822;DHT22;3449;48.728;8.968;2023-04-06T04:03:54;-1.20;99.90
6822;DHT22;3449;48.728;8.968;2023-04-06T04:06:21;-1.20;99.90
6822;DHT22;3449;48.728;8.968;2023-04-06T04:08:48;-1.20;99.90
6822;DHT22;3449;48.728;8.968;2023-04-06T04:11:15;-1.20;99.90
6822;DHT22;3449;48.728;8.968;2023-04-06T04:13:42;-1.20;99.90
6822;DHT22;3449;48.728;8.968;2023-04-06T04:16:10;-1.20;99.90
6822;DHT22;3449;48.728;8.968;2023-04-06T04:18:37;-1.20;99.90
6822;DHT22;3449;48.728;8.968;2023-04-06T04:21:04;-1.20;99.90
6822;DHT22;3449;48.728;8.968;2023-04-06T04:23:31;-1.20;99.90
6822;DHT22;3449;48.728;8.968;2023-04-06T04:25:58;-1.30;99.90
6822;DHT22;3449;48.728;8.968;2023-04-06T04:28:25;-1.30;99.90
6822;DHT22;3449;48.728;8.968;2023-04-06T04:30:52;-1.30;99.90
6822;DHT22;3449;48.728;8.968;2023-04-06T04:33:20;-1.30;99.90
6822;DHT22;3449;48.728;8.968;2023-04-06T04:35:47;-1.30;99.90
6822;DHT22;3449;48.728;8.968;2023-04-06T04:38:14;-1.30;99.90
6822;DHT22;3449;48.728;8.968;2023-04-06T04:40:41;-1.30;99.90
6822;DHT22;3449;48.728;8.968;2023-04-06T04:43:08;-1.30;99.90
6822;DHT22;3449;48.728;8.968;2023-04-06T04:45:35;-1.30;99.90
6822;DHT22;3449;48.728;8.968;2023-04-06T04:48:03;-1.30;99.90
6822;DHT22;3449;48.728;8.968;2023-04-06T04:50:31;-1.40;99.90
6822;DHT22;3449;48.728;8.968;2023-04-06T04:52:58;-1.40;99.90
6822;DHT22;3449;48.728;8.968;2023-04-06T04:55:25;-1.30;99.90
6822;DHT22;3449;48.728;8.968;2023-04-06T04:57:52;-1.40;99.90
6822;DHT22;3449;48.728;8.968;2023-04-06T05:00:20;-1.40;99.90
6822;DHT22;3449;48.728;8.968;2023-04-06T05:02:47;-1.40;99.90
6822;DHT22;3449;48.728;8.968;2023-04-06T05:05:14;-1.40;99.90
6822;DHT22;3449;48.728;8.968;2023-04-06T05:07:42;-1.40;99.90
6822;DHT22;3449;48.728;8.968;2023-04-06T05:10:10;-1.40;99.90
6822;DHT22;3449;48.728;8.968;2023-04-06T05:12:37;-1.30;99.90
6822;DHT22;3449;48.728;8.968;2023-04-06T05:15:05;-1.30;99.90
6822;DHT22;3449;48.728;8.968;2023-04-06T05:17:32;-1.30;99.90
6822;DHT22;3449;48.728;8.968;2023-04-06T05:20:00;-1.30;99.90
6822;DHT22;3449;48.728;8.968;2023-04-06T05:22:27;-1.30;99.90
6822;DHT22;3449;48.728;8.968;2023-04-06T05:24:56;-1.30;99.90
6822;DHT22;3449;48.728;8.968;2023-04-06T05:27:23;-1.30;99.90
6822;DHT22;3449;48.728;8.968;2023-04-06T05:29:50;-1.30;99.90
6822;DHT22;3449;48.728;8.968;2023-04-06T05:32:17;-1.30;99.90
6822;DHT22;3449;48.728;8.968;2023-04-06T05:34:47;-1.30;99.90
6822;DHT22;3449;48.728;8.968;2023-04-06T05:37:14;-1.30;99.90
6822;DHT22;3449;48.728;8.968;2023-04-06T05:39:41;-1.20;99.90
6822;DHT22;3449;48.728;8.968;2023-04-06T05:42:10;-1.20;99.90
6822;DHT22;3449;48.728;8.968;2023-04-06T05:44:37;-1.20;99.90
6822;DHT22;3449;48.728;8.968;2023-04-06T05:47:04;-1.10;99.90
6822;DHT22;3449;48.728;8.968;2023-04-06T05:49:31;-1.10;99.90
6822;DHT22;3449;48.728;8.968;2023-04-06T05:51:58;-1.00;99.90
6822;DHT22;3449;48.728;8.968;2023-04-06T05:54:25;-1.00;99.90
6822;DHT22;3449;48.728;8.968;2023-04-06T05:56:52;-0.90;99.90
6822;DHT22;3449;48.728;8.968;2023-04-06T05:59:21;-0.80;99.90
6822;DHT22;3449;48.728;8.968;2023-04-06T06:01:49;-0.70;99.90
6822;DHT22;3449;48.728;8.968;2023-04-06T06:04:16;-0.60;99.90
6822;DHT22;3449;48.728;8.968;2023-04-06T06:06:43;-0.50;99.90
6822;DHT22;3449;48.728;8.968;2023-04-06T06:09:10;-0.40;99.90
6822;DHT22;3449;48.728;8.968;2023-04-06T06:11:37;-0.30;99.90
6822;DHT22;3449;48.728;8.968;2023-04-06T06:14:04;-0.20;99.90
6822;DHT22;3449;48.728;8.968;2023-04-06T06:16:32;0.00;99.90
6822;DHT22;3449;48.728;8.968;2023-04-06T06:18:59;0.10;99.90
6822;DHT22;3449;48.728;8.968;2023-04-06T06:21:26;0.30;99.90
6822;DHT22;3449;48.728;8.968;2023-04-06T06:23:53;0.50;99.90
6822;DHT22;3449;48.728;8.968;2023-04-06T06:26:20;0.60;99.90
6822;DHT22;3449;48.728;8.968;2023-04-06T06:28:47;0.80;99.90
6822;DHT22;3449;48.728;8.968;2023-04-06T06:31:14;0.80;99.90
6822;DHT22;3449;48.728;8.968;2023-04-06T06:33:43;1.00;99.90
6822;DHT22;3449;48.728;8.968;2023-04-06T06:36:10;1.10;99.90
6822;DHT22;3449;48.728;8.968;2023-04-06T06:38:37;1.30;99.90
6822;DHT22;3449;48.728;8.968;2023-04-06T06:41:04;1.50;99.90
6822;DHT22;3449;48.728;8.968;2023-04-06T06:43:31;1.70;99.90
6822;DHT22;3449;48.728;8.968;2023-04-06T06:45:58;1.80;99.90
6822;DHT22;3449;48.728;8.968;2023-04-06T06:48:26;1.90;99.90
6822;DHT22;3449;48.728;8.968;2023-04-06T06:50:54;2.00;99.90
6822;DHT22;3449;48.728;8.968;2023-04-06T06:53:21;2.30;99.90
6822;DHT22;3449;48.728;8.968;2023-04-06T06:55:48;2.50;99.90
6822;DHT22;3449;48.728;8.968;2023-04-06T06:58:17;2.60;99.90
6822;DHT22;3449;48.728;8.968;2023-04-06T07:00:44;2.80;99.90
6822;DHT22;3449;48.728;8.968;2023-04-06T07:03:11;3.00;99.90
6822;DHT22;3449;48.728;8.968;2023-04-06T07:05:38;3.10;99.90
6822;DHT22;3449;48.728;8.968;2023-04-06T07:08:07;3.20;99.90
6822;DHT22;3449;48.728;8.968;2023-04-06T07:10:34;3.40;99.90
6822;DHT22;3449;48.728;8.968;2023-04-06T07:13:01;3.60;99.90
6822;DHT22;3449;48.728;8.968;2023-04-06T07:15:28;3.80;99.90
6822;DHT22;3449;48.728;8.968;2023-04-06T07:17:55;4.00;99.90
6822;DHT22;3449;48.728;8.968;2023-04-06T07:20:22;4.20;99.90
6822;DHT22;3449;48.728;8.968;2023-04-06T07:22:49;4.30;99.90
6822;DHT22;3449;48.728;8.968;2023-04-06T07:25:17;4.50;99.90
6822;DHT22;3449;48.728;8.968;2023-04-06T07:27:44;4.60;99.90
6822;DHT22;3449;48.728;8.968;2023-04-06T07:30:12;4.80;99.90
6822;DHT22;3449;48.728;8.968;2023-04-06T07:32:39;5.00;99.90
6822;DHT22;3449;48.728;8.968;2023-04-06T07:35:06;5.20;99.90
6822;DHT22;3449;48.728;8.968;2023-04-06T07:37:33;5.20;99.90
6822;DHT22;3449;48.728;8.968;2023-04-06T07:40:00;5.40;99.90
6822;DHT22;3449;48.728;8.968;2023-04-06T07:42:29;5.50;99.90
6822;DHT22;3449;48.728;8.968;2023-04-06T07:44:56;5.80;99.90
6822;DHT22;3449;48.728;8.968;2023-04-06T07:47:23;5.80;99.90
6822;DHT22;3449;48.728;8.968;2023-04-06T07:49:53;6.00;99.90
6822;DHT22;3449;48.728;8.968;2023-04-06T07:52:21;6.20;99.90
6822;DHT22;3449;48.728;8.968;2023-04-06T07:54:48;6.20;99.90
6822;DHT22;3449;48.728;8.968;2023-04-06T07:57:15;6.00;99.90
6822;DHT22;3449;48.728;8.968;2023-04-06T07:59:43;6.20;99.90
6822;DHT22;3449;48.728;8.968;2023-04-06T08:02:10;6.40;99.90
6822;DHT22;3449;48.728;8.968;2023-04-06T08:04:37;6.60;99.90
6822;DHT22;3449;48.728;8.968;2023-04-06T08:07:04;6.80;99.90
6822;DHT22;3449;48.728;8.968;2023-04-06T08:09:32;6.90;99.90
6822;DHT22;3449;48.728;8.968;2023-04-06T08:11:59;7.30;99.90
6822;DHT22;3449;48.728;8.968;2023-04-06T08:14:26;7.60;99.90
6822;DHT22;3449;48.728;8.968;2023-04-06T08:16:54;7.80;99.90
6822;DHT22;3449;48.728;8.968;2023-04-06T08:19:21;8.00;99.90
6822;DHT22;3449;48.728;8.968;2023-04-06T08:21:48;8.30;99.90
6822;DHT22;3449;48.728;8.968;2023-04-06T08:24:16;8.60;99.90
6822;DHT22;3449;48.728;8.968;2023-04-06T08:26:43;8.80;99.90
6822;DHT22;3449;48.728;8.968;2023-04-06T08:29:10;9.10;99.90
6822;DHT22;3449;48.728;8.968;2023-04-06T08:31:37;9.10;99.90
6822;DHT22;3449;48.728;8.968;2023-04-06T08:34:06;9.40;99.90
6822;DHT22;3449;48.728;8.968;2023-04-06T08:36:33;9.50;99.90
6822;DHT22;3449;48.728;8.968;2023-04-06T08:39:00;9.50;99.90
6822;DHT22;3449;48.728;8.968;2023-04-06T08:41:28;9.50;99.90
6822;DHT22;3449;48.728;8.968;2023-04-06T08:43:57;9.40;99.90
6822;DHT22;3449;48.728;8.968;2023-04-06T08:46:26;9.70;99.90
6822;DHT22;3449;48.728;8.968;2023-04-06T08:48:55;10.10;99.90
6822;DHT22;3449;48.728;8.968;2023-04-06T08:51:25;10.40;99.90
6822;DHT22;3449;48.728;8.968;2023-04-06T08:53:52;10.70;99.90
6822;DHT22;3449;48.728;8.968;2023-04-06T08:56:22;11.20;99.90
6822;DHT22;3449;48.728;8.968;2023-04-06T08:58:49;11.20;99.90
6822;DHT22;3449;48.728;8.968;2023-04-06T09:01:20;11.00;99.90
6822;DHT22;3449;48.728;8.968;2023-04-06T09:03:48;10.60;99.90
6822;DHT22;3449;48.728;8.968;2023-04-06T09:06:16;11.00;99.90
6822;DHT22;3449;48.728;8.968;2023-04-06T09:08:44;11.00;99.90
6822;DHT22;3449;48.728;8.968;2023-04-06T09:11:11;11.20;99.90
6822;DHT22;3449;48.728;8.968;2023-04-06T09:13:46;11.40;99.90
6822;DHT22;3449;48.728;8.968;2023-04-06T09:16:13;11.70;99.90
6822;DHT22;3449;48.728;8.968;2023-04-06T09:18:41;11.40;99.90
6822;DHT22;3449;48.728;8.968;2023-04-06T09:21:08;11.50;99.90
6822;DHT22;3449;48.728;8.968;2023-04-06T09:23:35;12.00;99.90
6822;DHT22;3449;48.728;8.968;2023-04-06T09:26:12;12.00;99.90
6822;DHT22;3449;48.728;8.968;2023-04-06T09:28:47;12.30;99.90
6822;DHT22;3449;48.728;8.968;2023-04-06T09:31:15;12.30;99.90
6822;DHT22;3449;48.728;8.968;2023-04-06T09:33:44;12.60;99.90
6822;DHT22;3449;48.728;8.968;2023-04-06T09:36:12;12.40;99.90
6822;DHT22;3449;48.728;8.968;2023-04-06T09:38:52;12.10;99.90
6822;DHT22;3449;48.728;8.968;2023-04-06T09:41:25;12.20;99.90
6822;DHT22;3449;48.728;8.968;2023-04-06T09:44:02;12.60;99.90
6822;DHT22;3449;48.728;8.968;2023-04-06T09:46:32;12.80;99.90
6822;DHT22;3449;48.728;8.968;2023-04-06T09:49:01;13.10;99.90
6822;DHT22;3449;48.728;8.968;2023-04-06T09:51:31;13.30;99.90
6822;DHT22;3449;48.728;8.968;2023-04-06T09:54:00;13.40;99.90
6822;DHT22;3449;48.728;8.968;2023-04-06T09:56:37;13.30;99.90
6822;DHT22;3449;48.728;8.968;2023-04-06T09:59:13;13.50;99.90
6822;DHT22;3449;48.728;8.968;2023-04-06T10:01:41;13.60;99.90
6822;DHT22;3449;48.728;8.968;2023-04-06T10:04:21;13.90;99.90
6822;DHT22;3449;48.728;8.968;2023-04-06T10:06:48;14.10;99.90
6822;DHT22;3449;48.728;8.968;2023-04-06T10:09:18;14.20;99.90
6822;DHT22;3449;48.728;8.968;2023-04-06T10:11:49;14.40;99.90
6822;DHT22;3449;48.728;8.968;2023-04-06T10:14:16;14.10;99.90
6822;DHT22;3449;48.728;8.968;2023-04-06T10:16:44;13.60;99.90
6822;DHT22;3449;48.728;8.968;2023-04-06T10:19:22;13.80;99.90
6822;DHT22;3449;48.728;8.968;2023-04-06T10:21:53;13.80;99.90
6822;DHT22;3449;48.728;8.968;2023-04-06T10:24:21;13.30;99.90
6822;DHT22;3449;48.728;8.968;2023-04-06T10:26:58;13.30;99.90
6822;DHT22;3449;48.728;8.968;2023-04-06T10:29:25;13.60;99.90
6822;DHT22;3449;48.728;8.968;2023-04-06T10:31:53;13.80;99.90
6822;DHT22;3449;48.728;8.968;2023-04-06T10:34:21;13.50;99.90
6822;DHT22;3449;48.728;8.968;2023-04-06T10:36:48;13.70;99.70
6822;DHT22;3449;48.728;8.968;2023-04-06T10:39:24;13.30;99.90
6822;DHT22;3449;48.728;8.968;2023-04-06T10:41:52;13.60;99.90
6822;DHT22;3449;48.728;8.968;2023-04-06T10:44:22;13.50;99.20
6822;DHT22;3449;48.728;8.968;2023-04-06T10:46:56;13.90;99.90
6822;DHT22;3449;48.728;8.968;2023-04-06T10:49:24;13.30;97.50
6822;DHT22;3449;48.728;8.968;2023-04-06T10:51:53;13.80;99.50
6822;DHT22;3449;48.728;8.968;2023-04-06T10:54:21;14.20;99.20
6822;DHT22;3449;48.728;8.968;2023-04-06T10:56:49;14.40;98.10
6822;DHT22;3449;48.728;8.968;2023-04-06T10:59:19;14.70;98.50
6822;DHT22;3449;48.728;8.968;2023-04-06T11:01:47;15.00;98.10
6822;DHT22;3449;48.728;8.968;2023-04-06T11:04:16;15.50;99.00
6822;DHT22;3449;48.728;8.968;2023-04-06T11:06:46;15.30;98.30
6822;DHT22;3449;48.728;8.968;2023-04-06T11:09:24;15.20;97.60
6822;DHT22;3449;48.728;8.968;2023-04-06T11:11:52;15.60;97.70
6822;DHT22;3449;48.728;8.968;2023-04-06T11:14:19;15.60;97.60
6822;DHT22;3449;48.728;8.968;2023-04-06T11:16:48;15.50;97.20
6822;DHT22;3449;48.728;8.968;2023-04-06T11:19:16;14.50;97.30
6822;DHT22;3449;48.728;8.968;2023-04-06T11:21:44;15.00;95.50
6822;DHT22;3449;48.728;8.968;2023-04-06T11:24:14;14.80;95.50
6822;DHT22;3449;48.728;8.968;2023-04-06T11:26:43;14.90;95.40
6822;DHT22;3449;48.728;8.968;2023-04-06T11:29:10;15.30;95.30
6822;DHT22;3449;48.728;8.968;2023-04-06T11:31:42;15.60;95.20
6822;DHT22;3449;48.728;8.968;2023-04-06T11:34:12;15.90;95.80
6822;DHT22;3449;48.728;8.968;2023-04-06T11:36:43;16.10;94.80
6822;DHT22;3449;48.728;8.968;2023-04-06T11:39:10;14.80;92.60
6822;DHT22;3449;48.728;8.968;2023-04-06T11:41:37;14.40;94.60
6822;DHT22;3449;48.728;8.968;2023-04-06T11:44:05;14.70;93.90
6822;DHT22;3449;48.728;8.968;2023-04-06T11:46:32;15.30;94.70
6822;DHT22;3449;48.728;8.968;2023-04-06T11:49:00;16.00;93.30
6822;DHT22;3449;48.728;8.968;2023-04-06T11:51:29;15.80;92.20
6822;DHT22;3449;48.728;8.968;2023-04-06T11:53:56;16.00;94.60
6822;DHT22;3449;48.728;8.968;2023-04-06T11:56:27;16.30;92.80
6822;DHT22;3449;48.728;8.968;2023-04-06T11:58:56;16.40;93.10
6822;DHT22;3449;48.728;8.968;2023-04-06T12:01:23;16.10;93.40
6822;DHT22;3449;48.728;8.968;2023-04-06T12:03:52;16.10;91.30
6822;DHT22;3449;48.728;8.968;2023-04-06T12:06:19;16.00;92.80
6822;DHT22;3449;48.728;8.968;2023-04-06T12:08:47;16.20;92.00
6822;DHT22;3449;48.728;8.968;2023-04-06T12:11:14;16.60;92.10
6822;DHT22;3449;48.728;8.968;2023-04-06T12:13:41;16.70;90.50
6822;DHT22;3449;48.728;8.968;2023-04-06T12:16:08;17.00;92.30
6822;DHT22;3449;48.728;8.968;2023-04-06T12:18:35;16.90;90.20
6822;DHT22;3449;48.728;8.968;2023-04-06T12:21:02;17.10;90.50
6822;DHT22;3449;48.728;8.968;2023-04-06T12:23:31;16.30;87.80
6822;DHT22;3449;48.728;8.968;2023-04-06T12:25:59;15.70;89.90
6822;DHT22;3449;48.728;8.968;2023-04-06T12:28:26;15.50;88.60
6822;DHT22;3449;48.728;8.968;2023-04-06T12:30:54;15.90;86.70
6822;DHT22;3449;48.728;8.968;2023-04-06T12:33:21;15.70;89.30
6822;DHT22;3449;48.728;8.968;2023-04-06T12:35:48;15.90;85.10
6822;DHT22;3449;48.728;8.968;2023-04-06T12:38:15;16.10;85.30
6822;DHT22;3449;48.728;8.968;2023-04-06T12:40:42;16.50;87.90
6822;DHT22;3449;48.728;8.968;2023-04-06T12:43:11;16.80;87.90
6822;DHT22;3449;48.728;8.968;2023-04-06T12:45:39;17.20;85.50
6822;DHT22;3449;48.728;8.968;2023-04-06T12:48:06;17.50;84.70
6822;DHT22;3449;48.728;8.968;2023-04-06T12:50:33;17.70;87.30
6822;DHT22;3449;48.728;8.968;2023-04-06T12:53:00;17.60;87.50
6822;DHT22;3449;48.728;8.968;2023-04-06T12:55:30;17.60;85.10
6822;DHT22;3449;48.728;8.968;2023-04-06T12:57:59;17.30;86.00
6822;DHT22;3449;48.728;8.968;2023-04-06T13:00:28;17.10;84.10
6822;DHT22;3449;48.728;8.968;2023-04-06T13:02:56;16.80;81.90
6822;DHT22;3449;48.728;8.968;2023-04-06T13:05:23;17.00;83.40
6822;DHT22;3449;48.728;8.968;2023-04-06T13:07:50;17.20;86.00
6822;DHT22;3449;48.728;8.968;2023-04-06T13:10:17;17.30;85.50
6822;DHT22;3449;48.728;8.968;2023-04-06T13:12:44;17.30;84.60
6822;DHT22;3449;48.728;8.968;2023-04-06T13:15:11;16.90;84.80
6822;DHT22;3449;48.728;8.968;2023-04-06T13:17:39;17.10;85.20
6822;DHT22;3449;48.728;8.968;2023-04-06T13:20:07;17.20;83.20
6822;DHT22;3449;48.728;8.968;2023-04-06T13:22:34;17.40;83.10
6822;DHT22;3449;48.728;8.968;2023-04-06T13:25:01;17.20;83.90
6822;DHT22;3449;48.728;8.968;2023-04-06T13:27:28;16.70;83.70
6822;DHT22;3449;48.728;8.968;2023-04-06T13:29:59;16.40;85.40
6822;DHT22;3449;48.728;8.968;2023-04-06T13:32:26;15.90;82.20
6822;DHT22;3449;48.728;8.968;2023-04-06T13:34:56;15.80;85.10
6822;DHT22;3449;48.728;8.968;2023-04-06T13:37:23;15.60;83.00
6822;DHT22;3449;48.728;8.968;2023-04-06T13:39:50;15.50;84.60
6822;DHT22;3449;48.728;8.968;2023-04-06T13:42:17;15.40;87.00
6822;DHT22;3449;48.728;8.968;2023-04-06T13:44:45;15.60;86.20
6822;DHT22;3449;48.728;8.968;2023-04-06T13:47:13;15.60;87.00
6822;DHT22;3449;48.728;8.968;2023-04-06T13:49:40;15.60;84.20
6822;DHT22;3449;48.728;8.968;2023-04-06T13:52:09;15.70;86.10
6822;DHT22;3449;48.728;8.968;2023-04-06T13:54:36;16.10;85.40
6822;DHT22;3449;48.728;8.968;2023-04-06T13:57:03;16.30;85.30
6822;DHT22;3449;48.728;8.968;2023-04-06T13:59:34;16.00;83.00
6822;DHT22;3449;48.728;8.968;2023-04-06T14:02:01;16.50;86.50
6822;DHT22;3449;48.728;8.968;2023-04-06T14:04:28;16.70;85.10
6822;DHT22;3449;48.728;8.968;2023-04-06T14:06:55;16.90;84.30
6822;DHT22;3449;48.728;8.968;2023-04-06T14:09:24;17.00;86.00
6822;DHT22;3449;48.728;8.968;2023-04-06T14:11:50;17.00;85.80
6822;DHT22;3449;48.728;8.968;2023-04-06T14:14:18;17.10;84.70
6822;DHT22;3449;48.728;8.968;2023-04-06T14:16:45;16.90;86.30
6822;DHT22;3449;48.728;8.968;2023-04-06T14:19:13;17.10;87.70
6822;DHT22;3449;48.728;8.968;2023-04-06T14:21:41;17.10;86.00
6822;DHT22;3449;48.728;8.968;2023-04-06T14:24:09;17.00;84.00
6822;DHT22;3449;48.728;8.968;2023-04-06T14:26:38;16.90;84.60
6822;DHT22;3449;48.728;8.968;2023-04-06T14:29:07;16.40;85.80
6822;DHT22;3449;48.728;8.968;2023-04-06T14:31:34;16.10;86.30
6822;DHT22;3449;48.728;8.968;2023-04-06T14:34:01;15.90;86.40
6822;DHT22;3449;48.728;8.968;2023-04-06T14:36:29;15.80;86.40
6822;DHT22;3449;48.728;8.968;2023-04-06T14:39:02;15.40;85.70
6822;DHT22;3449;48.728;8.968;2023-04-06T14:41:29;15.10;88.00
6822;DHT22;3449;48.728;8.968;2023-04-06T14:43:59;15.00;88.50
6822;DHT22;3449;48.728;8.968;2023-04-06T14:46:26;14.90;88.00
6822;DHT22;3449;48.728;8.968;2023-04-06T14:48:54;14.70;88.70
6822;DHT22;3449;48.728;8.968;2023-04-06T14:51:21;14.30;86.10
6822;DHT22;3449;48.728;8.968;2023-04-06T14:53:48;14.20;90.10
6822;DHT22;3449;48.728;8.968;2023-04-06T14:56:19;14.20;90.10
6822;DHT22;3449;48.728;8.968;2023-04-06T14:58:47;14.10;90.20
6822;DHT22;3449;48.728;8.968;2023-04-06T15:01:15;14.20;90.50
6822;DHT22;3449;48.728;8.968;2023-04-06T15:03:42;14.20;89.70
6822;DHT22;3449;48.728;8.968;2023-04-06T15:06:12;14.20;90.50
6822;DHT22;3449;48.728;8.968;2023-04-06T15:08:40;13.90;89.70
6822;DHT22;3449;48.728;8.968;2023-04-06T15:11:08;13.70;88.20
6822;DHT22;3449;48.728;8.968;2023-04-06T15:13:35;13.60;89.00
6822;DHT22;3449;48.728;8.968;2023-04-06T15:16:02;13.60;90.20
6822;DHT22;3449;48.728;8.968;2023-04-06T15:18:30;13.60;90.50
6822;DHT22;3449;48.728;8.968;2023-04-06T15:20:57;13.60;92.00
6822;DHT22;3449;48.728;8.968;2023-04-06T15:23:24;13.60;92.30
6822;DHT22;3449;48.728;8.968;2023-04-06T15:25:51;13.50;92.20
6822;DHT22;3449;48.728;8.968;2023-04-06T15:28:18;13.40;92.50
6822;DHT22;3449;48.728;8.968;2023-04-06T15:30:45;13.40;92.40
6822;DHT22;3449;48.728;8.968;2023-04-06T15:33:12;13.40;93.10
6822;DHT22;3449;48.728;8.968;2023-04-06T15:35:40;13.40;92.70
6822;DHT22;3449;48.728;8.968;2023-04-06T15:38:08;13.50;92.90
6822;DHT22;3449;48.728;8.968;2023-04-06T15:40:42;13.30;92.60
6822;DHT22;3449;48.728;8.968;2023-04-06T15:43:09;13.30;92.80
6822;DHT22;3449;48.728;8.968;2023-04-06T15:45:36;13.20;93.70
6822;DHT22;3449;48.728;8.968;2023-04-06T15:48:03;13.20;94.70
6822;DHT22;3449;48.728;8.968;2023-04-06T15:50:30;13.10;93.80
6822;DHT22;3449;48.728;8.968;2023-04-06T15:52:59;13.00;93.80
6822;DHT22;3449;48.728;8.968;2023-04-06T15:55:26;12.80;94.20
6822;DHT22;3449;48.728;8.968;2023-04-06T15:57:53;12.70;94.30
6822;DHT22;3449;48.728;8.968;2023-04-06T16:00:21;12.50;94.10
6822;DHT22;3449;48.728;8.968;2023-04-06T16:02:48;12.30;94.30
6822;DHT22;3449;48.728;8.968;2023-04-06T16:05:15;12.20;94.90
6822;DHT22;3449;48.728;8.968;2023-04-06T16:07:41;12.20;95.30